sensor_id;sensor_type;location;lat;lon;timestamp;P1;durP1;ratioP1;P2;durP2;ratioP2
31238;SDS011;17871;31.584;74.450;2023-06-10T00:00:13;211.38;;;86.13;;
31238;SDS011;17871;31.584;74.450;2023-06-10T00:02:45;215.43;;;94.30;;
31238;SDS011;17871;31.584;74.450;2023-06-10T00:05:14;217.02;;;90.68;;
31238;SDS011;17871;31.584;74.450;2023-06-10T00:07:44;206.18;;;92.40;;
31238;SDS011;17871;31.584;74.450;2023-06-10T00:10:14;191.40;;;87.45;;
31238;SDS011;17871;31.584;74.450;2023-06-10T00:12:43;160.20;;;78.88;;
31238;SDS011;17871;31.584;74.450;2023-06-10T00:15:12;158.98;;;72.15;;
31238;SDS011;17871;31.584;74.450;2023-06-10T00:17:42;147.15;;;66.93;;
31238;SDS011;17871;31.584;74.450;2023-06-10T00:20:11;151.82;;;65.93;;
31238;SDS011;17871;31.584;74.450;2023-06-10T00:22:40;164.10;;;73.45;;
31238;SDS011;17871;31.584;74.450;2023-06-10T00:25:13;161.75;;;73.82;;
31238;SDS011;17871;31.584;74.450;2023-06-10T00:27:42;168.35;;;75.88;;
31238;SDS011;17871;31.584;74.450;2023-06-10T00:30:13;167.83;;;74.97;;
31238;SDS011;17871;31.584;74.450;2023-06-10T00:32:43;175.80;;;71.75;;
31238;SDS011;17871;31.584;74.450;2023-06-10T00:35:11;129.60;;;52.35;;
31238;SDS011;17871;31.584;74.450;2023-06-10T00:37:40;113.40;;;48.05;;
31238;SDS011;17871;31.584;74.450;2023-06-10T00:40:09;141.05;;;52.83;;
31238;SDS011;17871;31.584;74.450;2023-06-10T00:42:38;118.78;;;49.55;;
31238;SDS011;17871;31.584;74.450;2023-06-10T00:45:07;117.13;;;50.17;;
31238;SDS011;17871;31.584;74.450;2023-06-10T00:47:37;114.32;;;49.25;;
31238;SDS011;17871;31.584;74.450;2023-06-10T00:50:07;125.78;;;53.38;;
31238;SDS011;17871;31.584;74.450;2023-06-10T00:52:36;121.82;;;55.30;;
31238;SDS011;17871;31.584;74.450;2023-06-10T00:55:08;115.20;;;54.33;;
31238;SDS011;17871;31.584;74.450;2023-06-10T00:57:40;125.40;;;55.00;;
31238;SDS011;17871;31.584;74.450;2023-06-10T01:00:12;127.57;;;57.10;;
31238;SDS011;17871;31.584;74.450;2023-06-10T01:02:41;134.90;;;59.53;;
31238;SDS011;17871;31.584;74.450;2023-06-10T01:05:10;130.05;;;58.03;;
31238;SDS011;17871;31.584;74.450;2023-06-10T01:07:43;138.73;;;60.58;;
31238;SDS011;17871;31.584;74.450;2023-06-10T01:12:59;140.55;;;59.70;;
31238;SDS011;17871;31.584;74.450;2023-06-10T01:15:36;127.82;;;57.85;;
31238;SDS011;17871;31.584;74.450;2023-06-10T01:18:07;124.55;;;59.42;;
31238;SDS011;17871;31.584;74.450;2023-06-10T01:20:37;150.43;;;67.22;;
31238;SDS011;17871;31.584;74.450;2023-06-10T01:23:08;163.85;;;72.97;;
31238;SDS011;17871;31.584;74.450;2023-06-10T01:25:43;160.32;;;69.00;;
31238;SDS011;17871;31.584;74.450;2023-06-10T01:33:31;152.90;;;67.30;;
31238;SDS011;17871;31.584;74.450;2023-06-10T01:36:04;152.27;;;68.90;;
31238;SDS011;17871;31.584;74.450;2023-06-10T01:38:44;145.68;;;66.20;;
31238;SDS011;17871;31.584;74.450;2023-06-10T01:41:18;148.35;;;61.80;;
31238;SDS011;17871;31.584;74.450;2023-06-10T01:43:49;140.77;;;60.72;;
31238;SDS011;17871;31.584;74.450;2023-06-10T01:46:20;138.15;;;59.30;;
31238;SDS011;17871;31.584;74.450;2023-06-10T01:48:50;159.57;;;71.20;;
31238;SDS011;17871;31.584;74.450;2023-06-10T01:51:18;167.82;;;73.95;;
31238;SDS011;17871;31.584;74.450;2023-06-10T01:53:48;184.30;;;75.90;;
31238;SDS011;17871;31.584;74.450;2023-06-10T01:56:17;163.52;;;69.28;;
31238;SDS011;17871;31.584;74.450;2023-06-10T01:58:48;162.13;;;64.47;;
31238;SDS011;17871;31.584;74.450;2023-06-10T02:01:18;132.60;;;56.83;;
31238;SDS011;17871;31.584;74.450;2023-06-10T02:03:47;151.27;;;53.38;;
31238;SDS011;17871;31.584;74.450;2023-06-10T02:06:16;127.82;;;50.97;;
31238;SDS011;17871;31.584;74.450;2023-06-10T02:08:45;109.80;;;45.60;;
31238;SDS011;17871;31.584;74.450;2023-06-10T02:11:14;107.72;;;44.33;;
31238;SDS011;17871;31.584;74.450;2023-06-10T02:13:42;104.07;;;42.95;;
31238;SDS011;17871;31.584;74.450;2023-06-10T02:16:12;99.65;;;39.58;;
31238;SDS011;17871;31.584;74.450;2023-06-10T02:18:41;90.63;;;39.90;;
31238;SDS011;17871;31.584;74.450;2023-06-10T02:21:14;92.30;;;39.88;;
31238;SDS011;17871;31.584;74.450;2023-06-10T02:23:43;98.80;;;38.05;;
31238;SDS011;17871;31.584;74.450;2023-06-10T02:26:12;91.78;;;36.33;;
31238;SDS011;17871;31.584;74.450;2023-06-10T02:28:44;112.70;;;40.80;;
31238;SDS011;17871;31.584;74.450;2023-06-10T02:31:13;94.28;;;35.13;;
31238;SDS011;17871;31.584;74.450;2023-06-10T02:36:15;169.75;;;37.65;;
31238;SDS011;17871;31.584;74.450;2023-06-10T02:38:44;133.73;;;36.35;;
31238;SDS011;17871;31.584;74.450;2023-06-10T02:41:13;99.07;;;35.10;;
31238;SDS011;17871;31.584;74.450;2023-06-10T02:43:43;97.57;;;35.25;;
31238;SDS011;17871;31.584;74.450;2023-06-10T02:46:11;82.00;;;35.75;;
31238;SDS011;17871;31.584;74.450;2023-06-10T02:48:42;98.22;;;43.70;;
31238;SDS011;17871;31.584;74.450;2023-06-10T02:51:18;91.70;;;39.45;;
31238;SDS011;17871;31.584;74.450;2023-06-10T02:53:50;92.53;;;38.65;;
31238;SDS011;17871;31.584;74.450;2023-06-10T02:56:19;85.88;;;36.25;;
31238;SDS011;17871;31.584;74.450;2023-06-10T02:58:48;110.38;;;41.70;;
31238;SDS011;17871;31.584;74.450;2023-06-10T03:01:19;94.55;;;38.00;;
31238;SDS011;17871;31.584;74.450;2023-06-10T03:03:59;73.22;;;32.25;;
31238;SDS011;17871;31.584;74.450;2023-06-10T03:06:30;95.13;;;35.05;;
31238;SDS011;17871;31.584;74.450;2023-06-10T03:09:10;96.05;;;33.78;;
31238;SDS011;17871;31.584;74.450;2023-06-10T03:11:41;84.10;;;33.20;;
31238;SDS011;17871;31.584;74.450;2023-06-10T03:14:10;87.05;;;32.33;;
31238;SDS011;17871;31.584;74.450;2023-06-10T03:16:40;78.18;;;31.92;;
31238;SDS011;17871;31.584;74.450;2023-06-10T03:19:10;99.50;;;33.25;;
31238;SDS011;17871;31.584;74.450;2023-06-10T03:21:44;72.68;;;30.75;;
31238;SDS011;17871;31.584;74.450;2023-06-10T03:24:14;76.80;;;33.50;;
31238;SDS011;17871;31.584;74.450;2023-06-10T03:26:44;80.70;;;33.97;;
31238;SDS011;17871;31.584;74.450;2023-06-10T03:29:15;88.57;;;31.40;;
31238;SDS011;17871;31.584;74.450;2023-06-10T03:31:45;61.83;;;30.13;;
31238;SDS011;17871;31.584;74.450;2023-06-10T03:34:14;77.40;;;29.63;;
31238;SDS011;17871;31.584;74.450;2023-06-10T03:36:45;74.88;;;28.38;;
31238;SDS011;17871;31.584;74.450;2023-06-10T03:39:14;70.57;;;24.88;;
31238;SDS011;17871;31.584;74.450;2023-06-10T03:41:43;83.75;;;31.30;;
31238;SDS011;17871;31.584;74.450;2023-06-10T03:44:13;67.70;;;27.15;;
31238;SDS011;17871;31.584;74.450;2023-06-10T03:46:43;77.75;;;28.85;;
31238;SDS011;17871;31.584;74.450;2023-06-10T03:49:12;72.82;;;26.23;;
31238;SDS011;17871;31.584;74.450;2023-06-10T03:51:41;66.50;;;22.02;;
31238;SDS011;17871;31.584;74.450;2023-06-10T03:54:10;70.85;;;23.95;;
31238;SDS011;17871;31.584;74.450;2023-06-10T03:56:40;80.65;;;22.15;;
31238;SDS011;17871;31.584;74.450;2023-06-10T03:59:08;70.97;;;23.38;;
31238;SDS011;17871;31.584;74.450;2023-06-10T04:01:38;69.07;;;26.90;;
31238;SDS011;17871;31.584;74.450;2023-06-10T04:04:15;57.40;;;21.60;;
31238;SDS011;17871;31.584;74.450;2023-06-10T04:06:47;58.97;;;22.17;;
31238;SDS011;17871;31.584;74.450;2023-06-10T04:09:16;65.00;;;21.67;;
31238;SDS011;17871;31.584;74.450;2023-06-10T04:11:45;56.78;;;17.67;;
31238;SDS011;17871;31.584;74.450;2023-06-10T04:14:14;50.35;;;15.82;;
31238;SDS011;17871;31.584;74.450;2023-06-10T04:16:43;57.53;;;20.20;;
31238;SDS011;17871;31.584;74.450;2023-06-10T04:19:12;45.47;;;16.30;;
31238;SDS011;17871;31.584;74.450;2023-06-10T04:21:42;54.25;;;19.10;;
31238;SDS011;17871;31.584;74.450;2023-06-10T04:24:11;63.03;;;16.42;;
31238;SDS011;17871;31.584;74.450;2023-06-10T04:26:42;49.15;;;15.68;;
31238;SDS011;17871;31.584;74.450;2023-06-10T04:29:11;55.35;;;17.52;;
31238;SDS011;17871;31.584;74.450;2023-06-10T04:31:40;55.40;;;17.55;;
31238;SDS011;17871;31.584;74.450;2023-06-10T04:34:09;46.92;;;15.48;;
31238;SDS011;17871;31.584;74.450;2023-06-10T04:36:38;37.03;;;12.27;;
31238;SDS011;17871;31.584;74.450;2023-06-10T04:39:07;49.08;;;11.57;;
31238;SDS011;17871;31.584;74.450;2023-06-10T04:41:36;42.67;;;10.75;;
31238;SDS011;17871;31.584;74.450;2023-06-10T04:44:04;31.13;;;8.52;;
31238;SDS011;17871;31.584;74.450;2023-06-10T04:46:33;36.95;;;10.05;;
31238;SDS011;17871;31.584;74.450;2023-06-10T04:49:02;29.33;;;9.95;;
31238;SDS011;17871;31.584;74.450;2023-06-10T04:51:33;25.25;;;8.40;;
31238;SDS011;17871;31.584;74.450;2023-06-10T04:54:01;32.50;;;10.65;;
31238;SDS011;17871;31.584;74.450;2023-06-10T04:56:31;36.80;;;10.95;;
31238;SDS011;17871;31.584;74.450;2023-06-10T04:59:00;36.58;;;11.63;;
31238;SDS011;17871;31.584;74.450;2023-06-10T05:01:29;32.85;;;11.25;;
31238;SDS011;17871;31.584;74.450;2023-06-10T05:03:58;31.05;;;10.05;;
31238;SDS011;17871;31.584;74.450;2023-06-10T05:06:26;43.97;;;9.85;;
31238;SDS011;17871;31.584;74.450;2023-06-10T05:08:57;29.80;;;10.00;;
31238;SDS011;17871;31.584;74.450;2023-06-10T05:11:30;40.72;;;12.02;;
31238;SDS011;17871;31.584;74.450;2023-06-10T05:13:58;43.30;;;11.60;;
31238;SDS011;17871;31.584;74.450;2023-06-10T05:16:27;32.88;;;10.25;;
31238;SDS011;17871;31.584;74.450;2023-06-10T05:18:56;36.75;;;10.90;;
31238;SDS011;17871;31.584;74.450;2023-06-10T05:21:25;50.45;;;11.38;;
31238;SDS011;17871;31.584;74.450;2023-06-10T05:23:54;37.13;;;10.90;;
31238;SDS011;17871;31.584;74.450;2023-06-10T05:26:23;33.63;;;11.20;;
31238;SDS011;17871;31.584;74.450;2023-06-10T05:28:53;35.00;;;11.88;;
31238;SDS011;17871;31.584;74.450;2023-06-10T05:31:23;37.63;;;11.18;;
31238;SDS011;17871;31.584;74.450;2023-06-10T05:33:52;37.97;;;11.45;;
31238;SDS011;17871;31.584;74.450;2023-06-10T05:36:21;42.53;;;13.23;;
31238;SDS011;17871;31.584;74.450;2023-06-10T05:38:56;26.80;;;11.68;;
31238;SDS011;17871;31.584;74.450;2023-06-10T05:41:27;46.55;;;10.75;;
31238;SDS011;17871;31.584;74.450;2023-06-10T05:43:56;61.42;;;13.27;;
31238;SDS011;17871;31.584;74.450;2023-06-10T05:46:24;39.00;;;10.75;;
31238;SDS011;17871;31.584;74.450;2023-06-10T05:48:53;35.50;;;10.00;;
31238;SDS011;17871;31.584;74.450;2023-06-10T05:51:22;33.60;;;11.15;;
31238;SDS011;17871;31.584;74.450;2023-06-10T05:53:51;35.92;;;11.43;;
31238;SDS011;17871;31.584;74.450;2023-06-10T05:56:20;33.22;;;9.77;;
31238;SDS011;17871;31.584;74.450;2023-06-10T05:58:55;51.28;;;10.13;;
31238;SDS011;17871;31.584;74.450;2023-06-10T06:01:24;40.63;;;10.90;;
31238;SDS011;17871;31.584;74.450;2023-06-10T06:03:53;39.25;;;10.73;;
31238;SDS011;17871;31.584;74.450;2023-06-10T06:06:22;36.05;;;10.23;;
31238;SDS011;17871;31.584;74.450;2023-06-10T06:08:51;33.17;;;10.95;;
31238;SDS011;17871;31.584;74.450;2023-06-10T06:11:22;36.70;;;10.60;;
31238;SDS011;17871;31.584;74.450;2023-06-10T06:13:53;35.87;;;12.47;;
31238;SDS011;17871;31.584;74.450;2023-06-10T06:16:22;33.50;;;8.73;;
31238;SDS011;17871;31.584;74.450;2023-06-10T06:18:51;28.67;;;10.07;;
31238;SDS011;17871;31.584;74.450;2023-06-10T06:21:20;36.17;;;8.02;;
31238;SDS011;17871;31.584;74.450;2023-06-10T06:23:49;41.38;;;12.52;;
31238;SDS011;17871;31.584;74.450;2023-06-10T06:26:17;32.85;;;9.90;;
31238;SDS011;17871;31.584;74.450;2023-06-10T06:28:46;33.08;;;7.82;;
31238;SDS011;17871;31.584;74.450;2023-06-10T06:31:15;41.55;;;8.48;;
31238;SDS011;17871;31.584;74.450;2023-06-10T06:33:44;24.83;;;7.35;;
31238;SDS011;17871;31.584;74.450;2023-06-10T06:36:13;32.25;;;9.18;;
31238;SDS011;17871;31.584;74.450;2023-06-10T06:38:42;35.30;;;7.55;;
31238;SDS011;17871;31.584;74.450;2023-06-10T06:41:10;39.72;;;8.05;;
31238;SDS011;17871;31.584;74.450;2023-06-10T06:43:39;26.38;;;8.50;;
31238;SDS011;17871;31.584;74.450;2023-06-10T06:46:33;49.83;;;18.48;;
31238;SDS011;17871;31.584;74.450;2023-06-10T06:49:02;42.40;;;13.45;;
31238;SDS011;17871;31.584;74.450;2023-06-10T06:51:31;31.35;;;8.50;;
31238;SDS011;17871;31.584;74.450;2023-06-10T06:54:01;37.60;;;14.02;;
31238;SDS011;17871;31.584;74.450;2023-06-10T06:56:29;27.55;;;8.95;;
31238;SDS011;17871;31.584;74.450;2023-06-10T06:58:59;27.23;;;8.02;;
31238;SDS011;17871;31.584;74.450;2023-06-10T07:01:28;72.10;;;31.83;;
31238;SDS011;17871;31.584;74.450;2023-06-10T07:03:58;41.15;;;13.05;;
31238;SDS011;17871;31.584;74.450;2023-06-10T07:06:26;28.58;;;8.77;;
31238;SDS011;17871;31.584;74.450;2023-06-10T07:08:55;39.53;;;12.18;;
31238;SDS011;17871;31.584;74.450;2023-06-10T07:11:24;27.02;;;9.15;;
31238;SDS011;17871;31.584;74.450;2023-06-10T07:13:55;32.25;;;8.95;;
31238;SDS011;17871;31.584;74.450;2023-06-10T07:16:23;27.50;;;10.25;;
31238;SDS011;17871;31.584;74.450;2023-06-10T07:18:53;40.65;;;8.90;;
31238;SDS011;17871;31.584;74.450;2023-06-10T07:21:21;32.33;;;10.57;;
31238;SDS011;17871;31.584;74.450;2023-06-10T07:23:51;46.13;;;10.75;;
31238;SDS011;17871;31.584;74.450;2023-06-10T07:26:24;47.80;;;11.25;;
31238;SDS011;17871;31.584;74.450;2023-06-10T07:28:54;29.40;;;12.15;;
31238;SDS011;17871;31.584;74.450;2023-06-10T07:31:23;57.80;;;19.88;;
31238;SDS011;17871;31.584;74.450;2023-06-10T07:33:52;36.65;;;8.57;;
31238;SDS011;17871;31.584;74.450;2023-06-10T07:36:21;26.10;;;8.88;;
31238;SDS011;17871;31.584;74.450;2023-06-10T07:38:50;37.00;;;8.77;;
31238;SDS011;17871;31.584;74.450;2023-06-10T07:41:19;63.47;;;14.02;;
31238;SDS011;17871;31.584;74.450;2023-06-10T07:43:48;43.90;;;15.25;;
31238;SDS011;17871;31.584;74.450;2023-06-10T07:46:22;34.72;;;12.02;;
31238;SDS011;17871;31.584;74.450;2023-06-10T07:48:54;32.42;;;9.57;;
31238;SDS011;17871;31.584;74.450;2023-06-10T07:51:23;34.58;;;7.93;;
31238;SDS011;17871;31.584;74.450;2023-06-10T07:53:52;40.35;;;8.32;;
31238;SDS011;17871;31.584;74.450;2023-06-10T07:56:21;30.23;;;9.68;;
31238;SDS011;17871;31.584;74.450;2023-06-10T07:58:50;33.40;;;8.52;;
31238;SDS011;17871;31.584;74.450;2023-06-10T08:01:19;46.03;;;13.48;;
31238;SDS011;17871;31.584;74.450;2023-06-10T08:03:48;31.88;;;9.07;;
31238;SDS011;17871;31.584;74.450;2023-06-10T08:06:17;30.38;;;8.88;;
31238;SDS011;17871;31.584;74.450;2023-06-10T08:08:46;23.00;;;7.90;;
31238;SDS011;17871;31.584;74.450;2023-06-10T08:11:15;32.42;;;8.40;;
31238;SDS011;17871;31.584;74.450;2023-06-10T08:13:44;27.75;;;8.13;;
31238;SDS011;17871;31.584;74.450;2023-06-10T08:16:13;28.52;;;8.25;;
31238;SDS011;17871;31.584;74.450;2023-06-10T08:18:45;28.40;;;8.38;;
31238;SDS011;17871;31.584;74.450;2023-06-10T08:21:14;26.92;;;8.10;;
31238;SDS011;17871;31.584;74.450;2023-06-10T08:23:42;34.90;;;11.10;;
31238;SDS011;17871;31.584;74.450;2023-06-10T08:26:12;57.33;;;20.15;;
31238;SDS011;17871;31.584;74.450;2023-06-10T08:28:41;49.20;;;16.45;;
31238;SDS011;17871;31.584;74.450;2023-06-10T08:31:10;34.83;;;10.95;;
31238;SDS011;17871;31.584;74.450;2023-06-10T08:33:40;37.35;;;13.70;;
31238;SDS011;17871;31.584;74.450;2023-06-10T08:36:10;39.15;;;13.65;;
31238;SDS011;17871;31.584;74.450;2023-06-10T08:38:39;28.50;;;8.82;;
31238;SDS011;17871;31.584;74.450;2023-06-10T08:41:08;42.22;;;15.32;;
31238;SDS011;17871;31.584;74.450;2023-06-10T08:43:43;38.53;;;9.73;;
31238;SDS011;17871;31.584;74.450;2023-06-10T08:46:34;42.10;;;14.38;;
31238;SDS011;17871;31.584;74.450;2023-06-10T08:49:05;31.90;;;12.75;;
31238;SDS011;17871;31.584;74.450;2023-06-10T08:51:36;37.73;;;14.40;;
31238;SDS011;17871;31.584;74.450;2023-06-10T08:54:10;43.63;;;10.27;;
31238;SDS011;17871;31.584;74.450;2023-06-10T08:56:48;48.00;;;15.93;;
31238;SDS011;17871;31.584;74.450;2023-06-10T08:59:21;39.55;;;10.35;;
31238;SDS011;17871;31.584;74.450;2023-06-10T09:01:50;25.05;;;8.20;;
31238;SDS011;17871;31.584;74.450;2023-06-10T09:04:20;26.35;;;8.50;;
31238;SDS011;17871;31.584;74.450;2023-06-10T09:06:49;28.70;;;7.57;;
31238;SDS011;17871;31.584;74.450;2023-06-10T09:09:19;36.50;;;8.90;;
31238;SDS011;17871;31.584;74.450;2023-06-10T09:11:48;47.53;;;9.40;;
31238;SDS011;17871;31.584;74.450;2023-06-10T09:14:17;31.85;;;9.63;;
31238;SDS011;17871;31.584;74.450;2023-06-10T09:16:46;22.55;;;7.05;;
31238;SDS011;17871;31.584;74.450;2023-06-10T09:19:16;34.50;;;8.18;;
31238;SDS011;17871;31.584;74.450;2023-06-10T09:21:45;21.63;;;7.95;;
31238;SDS011;17871;31.584;74.450;2023-06-10T09:24:14;31.75;;;7.15;;
31238;SDS011;17871;31.584;74.450;2023-06-10T09:26:43;31.40;;;7.80;;
31238;SDS011;17871;31.584;74.450;2023-06-10T09:29:13;20.45;;;8.48;;
31238;SDS011;17871;31.584;74.450;2023-06-10T09:31:43;24.48;;;8.50;;
31238;SDS011;17871;31.584;74.450;2023-06-10T09:34:13;47.00;;;9.48;;
31238;SDS011;17871;31.584;74.450;2023-06-10T09:36:45;41.00;;;8.13;;
31238;SDS011;17871;31.584;74.450;2023-06-10T09:39:17;27.08;;;7.38;;
31238;SDS011;17871;31.584;74.450;2023-06-10T09:41:47;35.13;;;8.45;;
31238;SDS011;17871;31.584;74.450;2023-06-10T09:44:19;22.27;;;7.25;;
31238;SDS011;17871;31.584;74.450;2023-06-10T09:46:50;28.25;;;7.82;;
31238;SDS011;17871;31.584;74.450;2023-06-10T09:49:19;36.65;;;8.38;;
31238;SDS011;17871;31.584;74.450;2023-06-10T09:51:52;27.80;;;7.20;;
31238;SDS011;17871;31.584;74.450;2023-06-10T09:54:22;32.05;;;9.30;;
31238;SDS011;17871;31.584;74.450;2023-06-10T09:56:51;26.00;;;7.22;;
31238;SDS011;17871;31.584;74.450;2023-06-10T09:59:29;14.00;;;6.68;;
31238;SDS011;17871;31.584;74.450;2023-06-10T10:02:00;27.75;;;7.63;;
31238;SDS011;17871;31.584;74.450;2023-06-10T10:04:29;26.90;;;7.10;;
31238;SDS011;17871;31.584;74.450;2023-06-10T10:06:58;36.35;;;7.22;;
31238;SDS011;17871;31.584;74.450;2023-06-10T10:09:27;23.67;;;7.22;;
31238;SDS011;17871;31.584;74.450;2023-06-10T10:11:56;30.30;;;7.35;;
31238;SDS011;17871;31.584;74.450;2023-06-10T10:14:25;33.95;;;7.22;;
31238;SDS011;17871;31.584;74.450;2023-06-10T10:17:00;19.02;;;6.80;;
31238;SDS011;17871;31.584;74.450;2023-06-10T10:19:32;20.35;;;7.30;;
31238;SDS011;17871;31.584;74.450;2023-06-10T10:22:14;23.67;;;6.88;;
31238;SDS011;17871;31.584;74.450;2023-06-10T10:24:51;31.20;;;8.45;;
31238;SDS011;17871;31.584;74.450;2023-06-10T10:27:27;36.45;;;7.95;;
31238;SDS011;17871;31.584;74.450;2023-06-10T10:30:04;19.42;;;7.18;;
31238;SDS011;17871;31.584;74.450;2023-06-10T10:32:42;27.08;;;7.88;;
31238;SDS011;17871;31.584;74.450;2023-06-10T10:35:27;26.08;;;8.02;;
31238;SDS011;17871;31.584;74.450;2023-06-10T10:40:28;39.33;;;9.70;;
31238;SDS011;17871;31.584;74.450;2023-06-10T10:42:57;29.45;;;8.13;;
31238;SDS011;17871;31.584;74.450;2023-06-10T10:45:28;29.15;;;8.65;;
31238;SDS011;17871;31.584;74.450;2023-06-10T10:47:58;27.90;;;8.10;;
31238;SDS011;17871;31.584;74.450;2023-06-10T10:50:39;21.65;;;7.15;;
31238;SDS011;17871;31.584;74.450;2023-06-10T10:53:08;17.98;;;7.47;;
31238;SDS011;17871;31.584;74.450;2023-06-10T10:55:37;30.55;;;9.65;;
31238;SDS011;17871;31.584;74.450;2023-06-10T10:58:06;24.90;;;7.50;;
31238;SDS011;17871;31.584;74.450;2023-06-10T11:00:43;31.40;;;7.90;;
31238;SDS011;17871;31.584;74.450;2023-06-10T11:03:16;19.83;;;7.78;;
31238;SDS011;17871;31.584;74.450;2023-06-10T11:05:47;38.20;;;8.55;;
31238;SDS011;17871;31.584;74.450;2023-06-10T11:11:17;32.40;;;7.85;;
31238;SDS011;17871;31.584;74.450;2023-06-10T11:16:41;29.52;;;7.10;;
31238;SDS011;17871;31.584;74.450;2023-06-10T11:19:28;27.08;;;7.45;;
31238;SDS011;17871;31.584;74.450;2023-06-10T11:22:02;27.40;;;7.55;;
31238;SDS011;17871;31.584;74.450;2023-06-10T11:24:33;27.27;;;6.82;;
31238;SDS011;17871;31.584;74.450;2023-06-10T11:27:36;40.25;;;7.55;;
31238;SDS011;17871;31.584;74.450;2023-06-10T11:32:35;25.30;;;7.25;;
31238;SDS011;17871;31.584;74.450;2023-06-10T11:35:04;57.13;;;8.88;;
31238;SDS011;17871;31.584;74.450;2023-06-10T11:37:36;30.92;;;7.47;;
31238;SDS011;17871;31.584;74.450;2023-06-10T11:40:07;38.30;;;7.18;;
31238;SDS011;17871;31.584;74.450;2023-06-10T11:42:40;25.50;;;7.75;;
31238;SDS011;17871;31.584;74.450;2023-06-10T11:45:14;26.95;;;7.10;;
31238;SDS011;17871;31.584;74.450;2023-06-10T11:48:00;32.97;;;8.93;;
31238;SDS011;17871;31.584;74.450;2023-06-10T11:50:30;20.38;;;7.18;;
31238;SDS011;17871;31.584;74.450;2023-06-10T11:53:00;35.67;;;7.67;;
31238;SDS011;17871;31.584;74.450;2023-06-10T11:55:50;17.52;;;7.25;;
31238;SDS011;17871;31.584;74.450;2023-06-10T11:58:20;22.90;;;6.68;;
31238;SDS011;17871;31.584;74.450;2023-06-10T12:00:51;25.45;;;7.15;;
31238;SDS011;17871;31.584;74.450;2023-06-10T12:03:21;28.50;;;7.10;;
31238;SDS011;17871;31.584;74.450;2023-06-10T12:05:57;33.45;;;7.82;;
31238;SDS011;17871;31.584;74.450;2023-06-10T12:08:30;17.83;;;6.57;;
31238;SDS011;17871;31.584;74.450;2023-06-10T12:11:03;21.98;;;8.50;;
31238;SDS011;17871;31.584;74.450;2023-06-10T12:13:32;25.80;;;6.60;;
31238;SDS011;17871;31.584;74.450;2023-06-10T12:16:07;27.85;;;6.75;;
31238;SDS011;17871;31.584;74.450;2023-06-10T12:18:37;23.48;;;7.03;;
31238;SDS011;17871;31.584;74.450;2023-06-10T12:21:18;34.15;;;9.50;;
31238;SDS011;17871;31.584;74.450;2023-06-10T12:24:05;25.98;;;7.97;;
31238;SDS011;17871;31.584;74.450;2023-06-10T12:26:42;32.30;;;9.00;;
31238;SDS011;17871;31.584;74.450;2023-06-10T12:29:15;26.63;;;7.93;;
31238;SDS011;17871;31.584;74.450;2023-06-10T12:31:54;30.60;;;7.93;;
31238;SDS011;17871;31.584;74.450;2023-06-10T12:34:36;30.33;;;7.18;;
31238;SDS011;17871;31.584;74.450;2023-06-10T12:37:10;25.20;;;7.47;;
31238;SDS011;17871;31.584;74.450;2023-06-10T12:39:43;28.75;;;7.28;;
31238;SDS011;17871;31.584;74.450;2023-06-10T12:42:24;28.58;;;8.32;;
31238;SDS011;17871;31.584;74.450;2023-06-10T12:44:53;258.00;;;28.45;;
31238;SDS011;17871;31.584;74.450;2023-06-10T12:47:31;307.80;;;28.90;;
31238;SDS011;17871;31.584;74.450;2023-06-10T12:50:07;238.18;;;25.70;;
31238;SDS011;17871;31.584;74.450;2023-06-10T12:52:36;255.68;;;21.80;;
31238;SDS011;17871;31.584;74.450;2023-06-10T12:55:05;180.35;;;23.27;;
31238;SDS011;17871;31.584;74.450;2023-06-10T12:57:35;427.13;;;36.22;;
31238;SDS011;17871;31.584;74.450;2023-06-10T13:00:03;663.88;;;61.13;;
31238;SDS011;17871;31.584;74.450;2023-06-10T13:02:36;199.35;;;17.02;;
31238;SDS011;17871;31.584;74.450;2023-06-10T13:05:05;225.25;;;22.48;;
31238;SDS011;17871;31.584;74.450;2023-06-10T13:07:35;293.77;;;26.42;;
31238;SDS011;17871;31.584;74.450;2023-06-10T13:10:04;140.30;;;14.32;;
31238;SDS011;17871;31.584;74.450;2023-06-10T13:12:33;104.55;;;11.35;;
31238;SDS011;17871;31.584;74.450;2023-06-10T13:15:14;94.15;;;7.70;;
31238;SDS011;17871;31.584;74.450;2023-06-10T13:17:44;55.28;;;7.05;;
31238;SDS011;17871;31.584;74.450;2023-06-10T13:20:17;27.70;;;5.05;;
31238;SDS011;17871;31.584;74.450;2023-06-10T13:22:47;42.88;;;7.22;;
31238;SDS011;17871;31.584;74.450;2023-06-10T16:26:01;14.10;;;7.28;;
31238;SDS011;17871;31.584;74.450;2023-06-10T16:28:31;16.35;;;7.45;;
31238;SDS011;17871;31.584;74.450;2023-06-10T16:31:00;12.50;;;6.40;;
31238;SDS011;17871;31.584;74.450;2023-06-10T16:33:30;18.27;;;6.10;;
31238;SDS011;17871;31.584;74.450;2023-06-10T16:35:59;12.93;;;6.00;;
31238;SDS011;17871;31.584;74.450;2023-06-10T16:38:28;16.00;;;9.07;;
31238;SDS011;17871;31.584;74.450;2023-06-10T16:40:57;22.40;;;9.98;;
31238;SDS011;17871;31.584;74.450;2023-06-10T16:43:26;21.60;;;9.30;;
31238;SDS011;17871;31.584;74.450;2023-06-10T16:45:55;18.77;;;9.20;;
31238;SDS011;17871;31.584;74.450;2023-06-10T16:48:24;18.10;;;9.40;;
31238;SDS011;17871;31.584;74.450;2023-06-10T16:50:54;24.15;;;10.10;;
31238;SDS011;17871;31.584;74.450;2023-06-10T16:53:23;26.95;;;11.02;;
31238;SDS011;17871;31.584;74.450;2023-06-10T16:55:52;23.33;;;10.07;;
31238;SDS011;17871;31.584;74.450;2023-06-10T16:58:22;31.25;;;12.57;;
31238;SDS011;17871;31.584;74.450;2023-06-10T17:00:51;27.63;;;11.80;;
31238;SDS011;17871;31.584;74.450;2023-06-10T18:06:12;18.63;;;12.52;;
31238;SDS011;17871;31.584;74.450;2023-06-10T18:08:42;24.00;;;14.48;;
31238;SDS011;17871;31.584;74.450;2023-06-10T18:11:11;27.65;;;15.63;;
31238;SDS011;17871;31.584;74.450;2023-06-10T18:13:40;24.88;;;15.85;;
31238;SDS011;17871;31.584;74.450;2023-06-10T18:16:08;22.83;;;14.20;;
31238;SDS011;17871;31.584;74.450;2023-06-10T18:18:38;17.75;;;12.23;;
31238;SDS011;17871;31.584;74.450;2023-06-10T18:21:07;18.02;;;10.13;;
31238;SDS011;17871;31.584;74.450;2023-06-10T18:23:37;19.35;;;9.45;;
31238;SDS011;17871;31.584;74.450;2023-06-10T18:26:06;10.18;;;7.72;;
31238;SDS011;17871;31.584;74.450;2023-06-10T18:28:35;12.63;;;7.75;;
31238;SDS011;17871;31.584;74.450;2023-06-10T18:31:04;12.57;;;7.93;;
31238;SDS011;17871;31.584;74.450;2023-06-10T18:33:33;10.15;;;7.00;;
31238;SDS011;17871;31.584;74.450;2023-06-10T18:36:02;13.55;;;7.40;;
31238;SDS011;17871;31.584;74.450;2023-06-10T18:38:31;13.23;;;6.78;;
31238;SDS011;17871;31.584;74.450;2023-06-10T18:44:17;8.23;;;6.18;;
31238;SDS011;17871;31.584;74.450;2023-06-10T18:46:46;9.55;;;6.65;;
31238;SDS011;17871;31.584;74.450;2023-06-10T18:49:33;8.93;;;5.82;;
31238;SDS011;17871;31.584;74.450;2023-06-10T18:52:20;12.50;;;6.60;;
31238;SDS011;17871;31.584;74.450;2023-06-10T18:54:49;10.20;;;6.00;;
31238;SDS011;17871;31.584;74.450;2023-06-10T18:57:18;13.25;;;8.25;;
31238;SDS011;17871;31.584;74.450;2023-06-10T18:59:51;27.50;;;13.57;;